createdAt,value
2023-02-11T00:00:43.519Z,98245.94
2023-02-11T00:03:11.769Z,98244.16
2023-02-11T00:05:40.107Z,98257.06
2023-02-11T00:08:08.383Z,98252.13
2023-02-11T00:10:36.655Z,98253.06
2023-02-11T00:13:04.934Z,98260.28
2023-02-11T00:15:33.222Z,98247.31
2023-02-11T00:18:02.821Z,98252.69
2023-02-11T00:20:31.068Z,98244.44
2023-02-11T00:22:59.464Z,98240.69
2023-02-11T00:25:27.714Z,98248.66
2023-02-11T00:27:55.985Z,98247.69
2023-02-11T00:30:24.505Z,98247.16
2023-02-11T00:32:52.847Z,98247.47
2023-02-11T00:35:22.451Z,98236.59
2023-02-11T00:37:50.705Z,98239.69
2023-02-11T00:40:19.034Z,98242.91
2023-02-11T00:42:47.422Z,98240.13
2023-02-11T00:45:15.663Z,98234.00
2023-02-11T00:47:44.085Z,98227.00
2023-02-11T00:50:12.320Z,98233.34
2023-02-11T00:52:41.952Z,98230.56
2023-02-11T00:55:10.517Z,98232.97
2023-02-11T00:57:38.915Z,98221.66
2023-02-11T01:00:08.983Z,98225.19
2023-02-11T01:02:37.243Z,98225.03
2023-02-11T01:05:06.274Z,98221.44
2023-02-11T01:07:34.596Z,98218.84
2023-02-11T01:10:04.402Z,98221.66
2023-02-11T01:12:35.942Z,98222.47
2023-02-11T01:15:06.062Z,98220.88
2023-02-11T01:17:34.746Z,98222.78
2023-02-11T01:20:04.085Z,98221.00
2023-02-11T01:22:32.507Z,98224.44
2023-02-11T01:25:00.876Z,98217.53
2023-02-11T01:27:30.732Z,98220.06
2023-02-11T01:29:59.422Z,98224.41
2023-02-11T01:32:27.777Z,98220.13
2023-02-11T01:34:56.214Z,98221.84
2023-02-11T01:37:24.552Z,98228.78
2023-02-11T01:39:52.951Z,98228.88
2023-02-11T01:42:22.682Z,98228.13
2023-02-11T01:44:53.472Z,98219.41
2023-02-11T01:47:22.407Z,98222.94
2023-02-11T01:49:53.193Z,98214.31
2023-02-11T01:52:25.058Z,98223.38
2023-02-11T01:55:26.093Z,98224.47
2023-02-11T01:57:59.368Z,98222.50
2023-02-11T02:00:34.344Z,98215.84
2023-02-11T02:03:06.665Z,98214.88
2023-02-11T02:05:38.308Z,98224.63
2023-02-11T02:08:11.447Z,98217.69
2023-02-11T02:10:42.640Z,98209.06
2023-02-11T02:13:10.980Z,98203.28
2023-02-11T02:15:42.713Z,98189.34
2023-02-11T02:18:20.753Z,98185.00
2023-02-11T02:21:23.630Z,98180.81
2023-02-11T02:24:04.198Z,98179.03
2023-02-11T02:26:47.147Z,98169.63
2023-02-11T02:29:41.059Z,98166.41
2023-02-11T02:32:29.486Z,98160.91
2023-02-11T02:35:03.227Z,98160.91
2023-02-11T02:37:34.684Z,98157.25
2023-02-11T02:40:06.556Z,98152.69
2023-02-11T02:42:35.025Z,98151.69
2023-02-11T02:45:03.333Z,98143.97
2023-02-11T02:47:33.070Z,98133.50
2023-02-11T02:50:01.417Z,98131.66
2023-02-11T02:52:36.886Z,98129.75
2023-02-11T02:55:15.834Z,98127.91
2023-02-11T02:57:59.325Z,98132.34
2023-02-11T03:00:33.243Z,98125.00
2023-02-11T03:03:17.202Z,98119.06
2023-02-11T03:05:51.414Z,98118.94
2023-02-11T03:08:25.617Z,98121.84
2023-02-11T03:10:54.828Z,98113.84
2023-02-11T03:13:26.338Z,98109.13
2023-02-11T03:15:56.942Z,98117.63
2023-02-11T03:18:27.384Z,98121.81
2023-02-11T03:20:56.248Z,98126.28
2023-02-11T03:23:28.261Z,98124.22
2023-02-11T03:25:59.872Z,98125.03
2023-02-11T03:28:31.974Z,98122.47
2023-02-11T03:31:11.119Z,98125.22
2023-02-11T03:33:44.964Z,98118.28
2023-02-11T03:36:17.668Z,98120.78
2023-02-11T03:38:49.385Z,98122.31
2023-02-11T03:41:19.268Z,98120.84
2023-02-11T03:43:50.084Z,98115.72
2023-02-11T03:46:21.065Z,98116.47
2023-02-11T03:48:52.835Z,98120.78
2023-02-11T03:51:22.302Z,98120.50
2023-02-11T03:53:51.032Z,98120.19
2023-02-11T03:56:22.034Z,98118.97
2023-02-11T03:58:50.497Z,98122.88
2023-02-11T04:01:18.881Z,98132.72
2023-02-11T04:03:47.189Z,98135.41
2023-02-11T04:06:16.828Z,98135.75
2023-02-11T04:08:45.137Z,98139.78
2023-02-11T04:11:13.378Z,98131.97
2023-02-11T04:13:41.693Z,98133.69
2023-02-11T04:16:10.103Z,98134.28
2023-02-11T04:18:38.441Z,98130.78
2023-02-11T04:21:07.097Z,98142.84
2023-02-11T04:23:36.764Z,98146.75
2023-02-11T04:26:05.185Z,98149.69
2023-02-11T04:28:33.784Z,98158.97
2023-02-11T04:31:02.106Z,98170.09
2023-02-11T04:33:30.394Z,98178.03
2023-02-11T04:35:58.665Z,98177.91
2023-02-11T04:38:27.386Z,98176.53
2023-02-11T04:40:57.020Z,98179.28
2023-02-11T04:43:25.252Z,98187.63
2023-02-11T04:45:53.684Z,98181.00
2023-02-11T04:48:22.117Z,98171.22
2023-02-11T04:50:50.359Z,98172.47
2023-02-11T04:53:18.663Z,98161.28
2023-02-11T04:55:50.201Z,98168.44
2023-02-11T04:58:20.570Z,98151.97
2023-02-11T05:00:49.044Z,98159.78
2023-02-11T05:03:17.502Z,98160.44
2023-02-11T05:05:45.846Z,98159.81
2023-02-11T05:08:14.206Z,98156.63
2023-02-11T05:10:47.172Z,98148.03
2023-02-11T05:13:15.682Z,98150.31
2023-02-11T05:15:45.413Z,98137.75
2023-02-11T05:18:14.906Z,98133.34
2023-02-11T05:20:43.429Z,98144.84
2023-02-11T05:23:12.039Z,98128.06
2023-02-11T05:25:40.741Z,98117.63
2023-02-11T05:28:09.134Z,98107.84
2023-02-11T05:30:37.583Z,98111.47
2023-02-11T05:33:07.722Z,98100.28
2023-02-11T05:35:36.069Z,98108.44
2023-02-11T05:38:04.426Z,98113.69
2023-02-11T05:40:32.831Z,98113.84
2023-02-11T05:43:01.160Z,98118.78
2023-02-11T05:45:29.501Z,98108.91
2023-02-11T05:47:58.414Z,98115.88
2023-02-11T05:50:28.118Z,98112.44
2023-02-11T05:52:56.475Z,98110.66
2023-02-11T05:55:25.015Z,98102.22
2023-02-11T05:57:53.427Z,98107.56
2023-02-11T06:00:21.792Z,98108.03
2023-02-11T06:02:50.183Z,98109.06
2023-02-11T06:05:18.574Z,98107.75
2023-02-11T06:07:48.298Z,98112.81
2023-02-11T06:10:16.762Z,98110.84
2023-02-11T06:12:45.225Z,98115.94
2023-02-11T06:15:13.645Z,98123.19
2023-02-11T06:17:41.946Z,98136.50
2023-02-11T06:20:11.168Z,98129.56
2023-02-11T06:22:39.533Z,98111.94
2023-02-11T06:25:11.057Z,98123.03
2023-02-11T06:27:39.903Z,98118.91
2023-02-11T06:30:09.820Z,98110.09
2023-02-11T06:32:46.096Z,98094.06
2023-02-11T06:35:15.239Z,98089.56
2023-02-11T06:37:43.834Z,98101.44
2023-02-11T06:40:14.198Z,98107.66
2023-02-11T06:42:42.549Z,98121.16
2023-02-11T06:45:13.207Z,98119.03
2023-02-11T06:47:42.038Z,98117.81
2023-02-11T06:50:13.234Z,98119.59
2023-02-11T06:52:41.616Z,98112.00
2023-02-11T06:55:11.017Z,98114.63
2023-02-11T06:57:40.937Z,98103.97
2023-02-11T07:00:10.625Z,98112.09
2023-02-11T07:02:38.998Z,98109.56
2023-02-11T07:05:07.904Z,98113.19
2023-02-11T07:07:36.259Z,98116.13
2023-02-11T07:10:05.908Z,98117.63
2023-02-11T07:12:34.263Z,98103.66
2023-02-11T07:15:04.069Z,98100.94
2023-02-11T07:17:32.406Z,98099.72
2023-02-11T07:20:00.736Z,98103.19
2023-02-11T07:22:29.000Z,98101.31
2023-02-11T07:24:57.384Z,98121.03
2023-02-11T07:27:25.694Z,98127.59
2023-02-11T07:29:54.024Z,98130.16
2023-02-11T07:32:23.715Z,98112.81
2023-02-11T07:34:52.217Z,98102.88
2023-02-11T07:37:20.715Z,98102.56
2023-02-11T07:39:49.055Z,98093.22
2023-02-11T07:42:17.551Z,98091.84
2023-02-11T07:44:47.054Z,98098.41
2023-02-11T07:47:16.345Z,98096.56
2023-02-11T07:49:46.657Z,98100.09
2023-02-11T07:52:14.933Z,98097.75
2023-02-11T07:54:43.302Z,98097.91
2023-02-11T07:57:11.738Z,98097.00
2023-02-11T07:59:40.072Z,98100.59
2023-02-11T08:02:08.431Z,98090.91
2023-02-11T08:04:36.767Z,98089.16
2023-02-11T08:07:06.894Z,98081.88
2023-02-11T08:09:35.192Z,98080.31
2023-02-11T08:12:03.554Z,98080.84
2023-02-11T08:14:32.797Z,98088.72
2023-02-11T08:17:01.163Z,98086.47
2023-02-11T08:19:29.503Z,98092.38
2023-02-11T08:21:58.521Z,98092.38
2023-02-11T08:24:28.184Z,98087.22
2023-02-11T08:26:56.565Z,98090.78
2023-02-11T08:29:25.152Z,98096.44
2023-02-11T08:31:53.539Z,98101.78
2023-02-11T08:34:22.122Z,98097.97
2023-02-11T08:36:50.422Z,98098.84
2023-02-11T08:39:21.065Z,98090.81
2023-02-11T08:41:52.329Z,98088.09
2023-02-11T08:44:21.570Z,98089.00
2023-02-11T08:46:50.575Z,98077.16
2023-02-11T08:49:19.022Z,98087.47
2023-02-11T08:51:47.615Z,98084.34
2023-02-11T08:54:16.348Z,98078.59
2023-02-11T08:56:44.854Z,98072.50
2023-02-11T08:59:17.732Z,98070.13
2023-02-11T09:01:47.342Z,98074.88
2023-02-11T09:04:15.886Z,98077.31
2023-02-11T09:06:44.207Z,98065.66
2023-02-11T09:09:14.599Z,98049.81
2023-02-11T09:11:43.888Z,98052.97
2023-02-11T09:14:18.370Z,98062.59
2023-02-11T09:16:46.824Z,98056.84
2023-02-11T09:19:15.223Z,98053.03
2023-02-11T09:21:43.561Z,98047.75
2023-02-11T09:24:12.619Z,98065.47
2023-02-11T09:26:43.938Z,98074.72
2023-02-11T09:29:15.217Z,98075.69
2023-02-11T09:31:43.711Z,98059.72
2023-02-11T09:34:12.873Z,98057.09
2023-02-11T09:36:41.865Z,98066.03
2023-02-11T09:39:14.366Z,98066.22
2023-02-11T09:42:17.467Z,98066.91
2023-02-11T09:44:48.051Z,98065.81
2023-02-11T09:47:23.285Z,98058.13
2023-02-11T09:49:54.503Z,98060.34
2023-02-11T09:52:27.347Z,98059.41
2023-02-11T09:54:57.496Z,98064.00
2023-02-11T09:57:29.341Z,98069.50
2023-02-11T09:59:59.198Z,98061.59
2023-02-11T10:02:32.007Z,98058.28
2023-02-11T10:05:23.992Z,98051.84
2023-02-11T10:07:58.385Z,98058.59
2023-02-11T10:10:40.052Z,98050.94
2023-02-11T10:13:42.406Z,98068.53
2023-02-11T10:16:26.407Z,98065.06
2023-02-11T10:19:14.126Z,98075.13
2023-02-11T10:21:53.008Z,98071.56
2023-02-11T10:24:21.548Z,98075.53
2023-02-11T10:26:50.350Z,98070.78
2023-02-11T10:29:35.421Z,98070.06
2023-02-11T10:32:12.205Z,98068.41
2023-02-11T10:34:42.599Z,98058.59
2023-02-11T10:37:13.009Z,98038.25
2023-02-11T10:39:41.969Z,98039.78
2023-02-11T10:42:12.624Z,98033.31
2023-02-11T10:44:41.315Z,98038.56
2023-02-11T10:47:15.337Z,98025.16
2023-02-11T10:49:45.024Z,98023.28
2023-02-11T10:52:20.592Z,98029.53
2023-02-11T10:55:00.313Z,98025.75
2023-02-11T10:57:31.603Z,98021.84
2023-02-11T11:00:01.824Z,98018.34
2023-02-11T11:02:34.500Z,98009.09
2023-02-11T11:05:05.291Z,98003.47
2023-02-11T11:07:34.879Z,97999.06
2023-02-11T11:10:05.182Z,97992.34
2023-02-11T11:12:36.666Z,97995.94
2023-02-11T11:15:18.829Z,97999.53
2023-02-11T11:17:48.758Z,98010.41
2023-02-11T11:20:22.297Z,97999.47
2023-02-11T11:22:52.478Z,97991.50
2023-02-11T11:25:26.325Z,97995.63
2023-02-11T11:27:56.692Z,97998.09
2023-02-11T11:30:27.231Z,97993.53
2023-02-11T11:32:57.433Z,97986.06
2023-02-11T11:35:27.675Z,97990.03
2023-02-11T11:38:01.247Z,97994.72
2023-02-11T11:40:31.267Z,98012.03
2023-02-11T11:43:08.651Z,98009.50
2023-02-11T11:45:37.153Z,98018.78
2023-02-11T11:48:11.586Z,98026.63
2023-02-11T11:50:43.409Z,98014.09
2023-02-11T11:53:16.259Z,98000.09
2023-02-11T11:55:46.642Z,97984.22
2023-02-11T11:58:17.551Z,97990.25
2023-02-11T12:00:54.570Z,97988.75
2023-02-11T12:04:04.587Z,97983.69
2023-02-11T12:06:41.167Z,97980.50
2023-02-11T12:09:17.684Z,97993.81
2023-02-11T12:12:01.255Z,97983.81
2023-02-11T12:14:36.720Z,97982.63
2023-02-11T12:17:08.820Z,97977.50
2023-02-11T12:20:04.607Z,97973.47
2023-02-11T12:22:40.179Z,97968.44
2023-02-11T12:25:23.615Z,97956.00
2023-02-11T12:27:59.070Z,97949.28
2023-02-11T12:30:47.746Z,97952.81
2023-02-11T12:33:26.978Z,97954.31
2023-02-11T12:36:01.121Z,97964.25
2023-02-11T12:38:40.750Z,97967.94
2023-02-11T12:41:40.571Z,97967.31
2023-02-11T12:44:09.393Z,97960.56
2023-02-11T12:46:42.149Z,97953.00
2023-02-11T12:49:28.788Z,97947.31
2023-02-11T12:52:09.431Z,97948.91
2023-02-11T12:54:42.493Z,97948.91
2023-02-11T12:57:18.142Z,97944.22
2023-02-11T12:59:56.366Z,97945.84
2023-02-11T13:02:31.166Z,97933.50
2023-02-11T13:05:05.096Z,97925.03
2023-02-11T13:07:38.691Z,97920.16
2023-02-11T13:10:17.626Z,97916.44
2023-02-11T13:13:04.895Z,97910.94
2023-02-11T13:15:33.316Z,97901.50
2023-02-11T13:18:06.997Z,97892.38
2023-02-11T13:20:41.293Z,97897.59
2023-02-11T13:23:18.425Z,97899.31
2023-02-11T13:25:51.382Z,97906.41
2023-02-11T13:28:27.265Z,97903.34
2023-02-11T13:31:02.761Z,97899.94
2023-02-11T13:33:36.280Z,97900.56
2023-02-11T13:36:23.208Z,97892.81
2023-02-11T13:39:02.346Z,97894.06
2023-02-11T13:41:33.404Z,97898.91
2023-02-11T13:44:04.537Z,97899.31
2023-02-11T13:46:59.152Z,97911.09
2023-02-11T13:49:32.428Z,97906.84
2023-02-11T13:52:02.314Z,97899.78
2023-02-11T13:54:34.720Z,97897.69
2023-02-11T13:57:32.658Z,97892.66
2023-02-11T14:00:02.845Z,97900.78
2023-02-11T14:02:51.055Z,97900.53
2023-02-11T14:05:48.262Z,97893.44
2023-02-11T14:08:42.547Z,97894.69
2023-02-11T14:11:43.846Z,97883.75
2023-02-11T14:14:25.797Z,97888.59
2023-02-11T14:17:31.907Z,97895.53
2023-02-11T14:20:00.892Z,97893.72
2023-02-11T14:22:31.662Z,97914.19
2023-02-11T14:25:01.920Z,97908.84
2023-02-11T14:27:38.065Z,97901.63
2023-02-11T14:30:16.056Z,97913.94
2023-02-11T14:32:54.247Z,97910.09
2023-02-11T14:35:27.230Z,97912.84
2023-02-11T14:38:00.201Z,97916.31
2023-02-11T14:40:32.056Z,97918.50
2023-02-11T14:43:14.821Z,97908.97
2023-02-11T14:45:45.656Z,97909.22
2023-02-11T14:48:15.393Z,97904.34
2023-02-11T14:50:46.764Z,97910.06
2023-02-11T14:53:17.798Z,97906.84
2023-02-11T14:55:48.625Z,97911.16
2023-02-11T14:58:21.014Z,97912.59
2023-02-11T15:00:55.334Z,97912.28
2023-02-11T15:03:42.276Z,97921.63
2023-02-11T15:06:18.464Z,97916.97
2023-02-11T15:08:49.221Z,97903.09
2023-02-11T15:11:19.711Z,97913.13
2023-02-11T15:13:50.415Z,97910.22
2023-02-11T15:16:20.768Z,97912.97
2023-02-11T15:18:51.770Z,97919.59
2023-02-11T15:21:24.282Z,97921.03
2023-02-11T15:24:01.055Z,97922.25
2023-02-11T15:26:30.039Z,97913.81
2023-02-11T15:29:00.018Z,97915.50
2023-02-11T15:31:29.815Z,97918.13
2023-02-11T15:34:08.432Z,97928.13
2023-02-11T15:36:36.963Z,97929.59
2023-02-11T15:39:29.019Z,97925.00
2023-02-11T15:41:57.406Z,97925.13
2023-02-11T15:44:31.311Z,97924.03
2023-02-11T15:47:00.150Z,97925.97
2023-02-11T15:49:28.544Z,97930.50
2023-02-11T15:51:58.988Z,97933.19
2023-02-11T15:54:29.557Z,97939.94
2023-02-11T15:57:00.489Z,97936.56
2023-02-11T15:59:31.679Z,97937.28
2023-02-11T16:02:07.934Z,97941.25
2023-02-11T16:04:37.576Z,97947.25
2023-02-11T16:07:06.626Z,97944.34
2023-02-11T16:09:35.936Z,97944.50
2023-02-11T16:12:07.559Z,97945.19
2023-02-11T16:14:39.346Z,97952.03
2023-02-11T16:17:09.085Z,97951.31
2023-02-11T16:19:43.052Z,97962.00
2023-02-11T16:22:13.187Z,97968.16
2023-02-11T16:24:41.483Z,97971.44
2023-02-11T16:27:21.096Z,97970.81
2023-02-11T16:29:51.561Z,97973.72
2023-02-11T16:32:20.950Z,97973.91
2023-02-11T16:34:49.385Z,97977.44
2023-02-11T16:37:18.158Z,97981.66
2023-02-11T16:39:46.344Z,97983.78
2023-02-11T16:42:14.575Z,97991.16
2023-02-11T16:44:42.771Z,97994.00
2023-02-11T16:47:18.744Z,98006.09
2023-02-11T16:49:47.047Z,97998.09
2023-02-11T16:52:16.876Z,98001.34
2023-02-11T16:54:45.289Z,98002.97
2023-02-11T16:57:15.781Z,98004.63
2023-02-11T16:59:44.562Z,98007.88
2023-02-11T17:02:17.075Z,98012.72
2023-02-11T17:04:45.859Z,98008.72
2023-02-11T17:07:14.272Z,98026.00
2023-02-11T17:09:42.527Z,98025.63
2023-02-11T17:12:10.759Z,98024.88
2023-02-11T17:14:39.033Z,98033.50
2023-02-11T17:17:08.056Z,98034.44
2023-02-11T17:19:38.066Z,98032.66
2023-02-11T17:22:06.669Z,98043.19
2023-02-11T17:24:35.034Z,98049.94
2023-02-11T17:27:03.290Z,98046.75
2023-02-11T17:29:31.660Z,98049.09
2023-02-11T17:32:00.020Z,98056.28
2023-02-11T17:34:29.321Z,98049.69
2023-02-11T17:37:00.267Z,98053.44
2023-02-11T17:39:28.693Z,98046.03
2023-02-11T17:41:56.969Z,98045.66
2023-02-11T17:44:25.336Z,98050.91
2023-02-11T17:46:53.655Z,98055.22
2023-02-11T17:49:21.981Z,98053.66
2023-02-11T17:51:50.377Z,98060.22
2023-02-11T17:54:20.509Z,98059.28
2023-02-11T17:56:50.884Z,98071.44
2023-02-11T17:59:19.396Z,98074.16
2023-02-11T18:01:47.887Z,98071.72
2023-02-11T18:04:18.457Z,98070.97
2023-02-11T18:06:46.615Z,98070.53
2023-02-11T18:09:14.981Z,98061.19
2023-02-11T18:11:44.722Z,98065.47
2023-02-11T18:14:13.207Z,98061.44
2023-02-11T18:16:43.640Z,98061.47
2023-02-11T18:19:12.550Z,98064.38
2023-02-11T18:21:41.583Z,98071.56
2023-02-11T18:24:10.255Z,98075.69
2023-02-11T18:26:38.745Z,98067.28
2023-02-11T18:29:08.522Z,98069.72
2023-02-11T18:31:37.309Z,98067.53
2023-02-11T18:34:07.622Z,98080.72
2023-02-11T18:36:36.611Z,98081.31
2023-02-11T18:39:05.778Z,98072.53
2023-02-11T18:41:34.158Z,98074.47
2023-02-11T18:44:03.442Z,98068.00
2023-02-11T18:46:33.292Z,98069.78
2023-02-11T18:49:01.703Z,98078.78
2023-02-11T18:51:32.352Z,98072.41
2023-02-11T18:54:01.368Z,98077.88
2023-02-11T18:56:29.758Z,98076.72
2023-02-11T18:59:01.300Z,98079.94
2023-02-11T19:01:31.212Z,98076.75
2023-02-11T19:04:02.938Z,98071.63
2023-02-11T19:06:33.778Z,98079.97
2023-02-11T19:09:07.421Z,98071.72
2023-02-11T19:11:54.379Z,98073.81
2023-02-11T19:14:25.101Z,98075.63
2023-02-11T19:16:54.912Z,98081.13
2023-02-11T19:19:29.067Z,98090.47
2023-02-11T19:21:57.863Z,98084.81
2023-02-11T19:24:26.930Z,98089.38
2023-02-11T19:26:57.784Z,98088.34
2023-02-11T19:29:26.237Z,98087.19
2023-02-11T19:31:54.937Z,98089.97
2023-02-11T19:34:24.771Z,98084.38
2023-02-11T19:36:54.215Z,98085.59
2023-02-11T19:39:24.094Z,98079.72
2023-02-11T19:41:52.579Z,98077.63
2023-02-11T19:44:20.901Z,98082.19
2023-02-11T19:46:50.270Z,98084.88
2023-02-11T19:49:23.133Z,98085.84
2023-02-11T19:51:53.874Z,98083.91
2023-02-11T19:54:22.331Z,98073.69
2023-02-11T19:56:50.929Z,98071.97
2023-02-11T19:59:19.504Z,98076.19
2023-02-11T20:01:49.036Z,98082.44
2023-02-11T20:04:17.939Z,98082.78
2023-02-11T20:06:48.095Z,98081.06
2023-02-11T20:09:17.724Z,98068.72
2023-02-11T20:11:46.008Z,98082.56
2023-02-11T20:14:15.617Z,98085.00
2023-02-11T20:16:49.065Z,98093.53
2023-02-11T20:19:20.317Z,98092.69
2023-02-11T20:21:50.656Z,98096.03
2023-02-11T20:24:21.324Z,98108.59
2023-02-11T20:26:49.557Z,98117.88
2023-02-11T20:29:18.443Z,98108.94
2023-02-11T20:31:47.064Z,98109.63
2023-02-11T20:34:17.563Z,98106.97
2023-02-11T20:36:51.542Z,98113.66
2023-02-11T20:39:22.860Z,98107.63
2023-02-11T20:41:51.733Z,98109.34
2023-02-11T20:44:21.776Z,98113.03
2023-02-11T20:46:50.286Z,98110.41
2023-02-11T20:49:20.377Z,98111.22
2023-02-11T20:51:49.139Z,98118.25
2023-02-11T20:54:19.035Z,98109.03
2023-02-11T20:56:50.718Z,98107.16
2023-02-11T20:59:19.773Z,98107.06
2023-02-11T21:01:49.872Z,98114.50
2023-02-11T21:04:20.236Z,98115.78
2023-02-11T21:06:49.777Z,98124.88
2023-02-11T21:09:20.706Z,98125.91
2023-02-11T21:11:51.586Z,98123.97
2023-02-11T21:14:20.812Z,98124.31
2023-02-11T21:16:49.610Z,98116.56
2023-02-11T21:19:18.156Z,98114.34
2023-02-11T21:21:46.548Z,98121.72
2023-02-11T21:24:15.175Z,98116.81
2023-02-11T21:26:44.201Z,98123.72
2023-02-11T21:29:14.771Z,98116.31
2023-02-11T21:31:43.536Z,98116.72
2023-02-11T21:34:12.194Z,98116.25
2023-02-11T21:36:41.154Z,98121.75
2023-02-11T21:39:09.749Z,98122.16
2023-02-11T21:41:38.117Z,98125.38
2023-02-11T21:44:06.428Z,98118.16
2023-02-11T21:46:36.210Z,98116.88
2023-02-11T21:49:04.479Z,98125.44
2023-02-11T21:51:32.822Z,98123.19
2023-02-11T21:54:02.663Z,98119.75
2023-02-11T21:56:32.142Z,98121.75
2023-02-11T21:59:01.260Z,98124.22
2023-02-11T22:01:31.202Z,98121.25
2023-02-11T22:04:00.869Z,98111.59
2023-02-11T22:06:31.770Z,98117.56
2023-02-11T22:09:01.498Z,98115.84
2023-02-11T22:11:29.965Z,98124.88
2023-02-11T22:13:59.116Z,98119.56
2023-02-11T22:16:31.490Z,98129.56
2023-02-11T22:19:02.396Z,98127.88
2023-02-11T22:21:30.933Z,98133.09
2023-02-11T22:23:59.303Z,98129.22
2023-02-11T22:26:28.489Z,98132.25
2023-02-11T22:28:57.027Z,98131.47
2023-02-11T22:31:27.511Z,98135.50
2023-02-11T22:33:56.101Z,98134.03
2023-02-11T22:36:27.197Z,98137.41
2023-02-11T22:38:55.886Z,98136.88
2023-02-11T22:41:24.272Z,98140.72
2023-02-11T22:43:52.609Z,98141.06
2023-02-11T22:46:21.009Z,98144.25
2023-02-11T22:48:49.683Z,98149.81
2023-02-11T22:51:19.409Z,98148.41
2023-02-11T22:53:52.449Z,98149.31
2023-02-11T22:56:21.021Z,98151.94
2023-02-11T22:58:49.911Z,98159.75
2023-02-11T23:01:18.653Z,98170.16
2023-02-11T23:03:47.183Z,98168.91
2023-02-11T23:06:15.700Z,98165.88
2023-02-11T23:08:44.306Z,98164.97
2023-02-11T23:11:18.114Z,98166.56
2023-02-11T23:13:47.805Z,98160.88
2023-02-11T23:16:17.824Z,98166.94
2023-02-11T23:18:47.400Z,98159.66
2023-02-11T23:21:17.753Z,98159.28
2023-02-11T23:23:46.514Z,98157.59
2023-02-11T23:26:18.932Z,98151.59
2023-02-11T23:28:47.585Z,98156.69
2023-02-11T23:31:17.610Z,98162.25
2023-02-11T23:33:47.048Z,98164.28
2023-02-11T23:36:16.632Z,98161.63
2023-02-11T23:38:45.057Z,98176.97
2023-02-11T23:41:13.381Z,98176.41
2023-02-11T23:43:43.135Z,98180.84
2023-02-11T23:46:12.039Z,98187.84
2023-02-11T23:48:40.937Z,98187.50
2023-02-11T23:51:10.113Z,98181.81
2023-02-11T23:53:38.649Z,98176.09
2023-02-11T23:56:08.704Z,98173.50
2023-02-11T23:58:37.307Z,98167.69
